createdAt,value
2018-08-17T00:02:25.915Z,22.10
2018-08-17T00:06:28.146Z,22.20
2018-08-17T00:10:30.325Z,22.40
2018-08-17T00:14:32.499Z,22.30
2018-08-17T00:18:34.678Z,22.20
2018-08-17T00:22:36.902Z,22.20
2018-08-17T00:26:39.130Z,22.20
2018-08-17T00:30:41.296Z,22.20
2018-08-17T00:34:43.471Z,22.00
2018-08-17T00:38:45.639Z,22.20
2018-08-17T00:42:47.822Z,22.30
2018-08-17T00:46:50.019Z,22.30
2018-08-17T00:50:52.218Z,22.10
2018-08-17T00:54:54.376Z,21.40
2018-08-17T00:58:56.554Z,21.60
2018-08-17T01:02:58.827Z,22.20
2018-08-17T01:07:01.441Z,21.60
2018-08-17T01:11:03.642Z,21.90
2018-08-17T01:15:06.007Z,22.10
2018-08-17T01:19:08.204Z,22.10
2018-08-17T01:23:10.440Z,21.90
2018-08-17T01:27:12.657Z,21.80
2018-08-17T01:31:14.895Z,21.50
2018-08-17T01:35:17.391Z,21.10
2018-08-17T01:39:19.553Z,21.00
2018-08-17T01:43:21.719Z,21.00
2018-08-17T01:47:23.874Z,21.00
2018-08-17T01:51:26.519Z,21.30
2018-08-17T01:55:28.748Z,21.20
2018-08-17T01:59:30.937Z,21.40
2018-08-17T02:03:33.730Z,21.40
2018-08-17T02:07:36.486Z,21.10
2018-08-17T02:11:39.126Z,21.30
2018-08-17T02:15:41.287Z,21.40
2018-08-17T02:19:43.447Z,21.20
2018-08-17T02:23:45.604Z,20.90
2018-08-17T02:27:47.777Z,20.80
2018-08-17T02:31:49.937Z,20.90
2018-08-17T02:35:52.104Z,21.10
2018-08-17T02:39:54.846Z,21.30
2018-08-17T02:43:57.097Z,21.30
2018-08-17T02:48:00.105Z,21.40
2018-08-17T02:52:02.307Z,21.60
2018-08-17T02:56:04.504Z,21.50
2018-08-17T03:00:06.763Z,21.50
2018-08-17T03:04:09.008Z,21.40
2018-08-17T03:08:11.199Z,21.30
2018-08-17T03:12:13.394Z,21.30
2018-08-17T03:16:15.708Z,21.30
2018-08-17T03:20:17.880Z,21.20
2018-08-17T03:24:20.638Z,21.20
2018-08-17T03:28:23.009Z,21.20
2018-08-17T03:32:25.475Z,21.10
2018-08-17T03:36:27.701Z,20.90
2018-08-17T03:40:29.877Z,20.90
2018-08-17T03:44:32.067Z,20.50
2018-08-17T03:48:34.835Z,20.40
2018-08-17T03:52:37.138Z,20.60
2018-08-17T03:56:39.298Z,21.00
2018-08-17T04:00:41.591Z,20.90
2018-08-17T04:04:43.809Z,21.10
2018-08-17T04:08:46.115Z,21.20
2018-08-17T04:12:48.439Z,21.10
2018-08-17T04:16:50.919Z,21.30
2018-08-17T04:20:53.176Z,21.10
2018-08-17T04:24:55.375Z,21.20
2018-08-17T04:28:58.148Z,20.80
2018-08-17T04:33:00.475Z,21.00
2018-08-17T04:37:03.247Z,20.60
2018-08-17T04:41:05.786Z,20.10
2018-08-17T04:45:08.831Z,20.70
2018-08-17T04:49:11.090Z,20.60
2018-08-17T04:53:13.333Z,21.10
2018-08-17T04:57:15.503Z,21.10
2018-08-17T05:01:17.672Z,20.90
2018-08-17T05:05:19.882Z,21.10
2018-08-17T05:09:22.331Z,20.70
2018-08-17T05:13:24.534Z,21.40
2018-08-17T05:17:26.684Z,21.80
2018-08-17T05:21:29.325Z,22.00
2018-08-17T05:25:32.310Z,22.10
2018-08-17T05:29:34.476Z,22.40
2018-08-17T05:33:36.656Z,22.30
2018-08-17T05:37:38.902Z,22.60
2018-08-17T05:41:41.111Z,22.80
2018-08-17T05:45:43.366Z,22.80
2018-08-17T05:49:46.576Z,22.40
2018-08-17T05:53:49.296Z,23.10
2018-08-17T05:57:51.929Z,21.70
2018-08-17T06:01:54.226Z,23.60
2018-08-17T06:05:56.436Z,24.10
2018-08-17T06:09:58.688Z,24.90
2018-08-17T06:14:00.872Z,25.40
2018-08-17T06:18:03.111Z,25.10
2018-08-17T06:22:05.410Z,25.40
2018-08-17T06:26:07.644Z,25.80
2018-08-17T06:30:13.829Z,25.40
2018-08-17T06:34:16.909Z,25.40
2018-08-17T06:38:19.177Z,26.10
2018-08-17T06:42:21.336Z,25.90
2018-08-17T06:46:23.504Z,25.70
2018-08-17T06:50:25.681Z,25.50
2018-08-17T06:54:27.854Z,25.40
2018-08-17T06:58:30.015Z,25.30
2018-08-17T07:02:32.207Z,25.30
2018-08-17T07:06:34.374Z,26.10
2018-08-17T07:10:37.827Z,27.00
2018-08-17T07:14:39.979Z,24.20
2018-08-17T07:18:42.121Z,26.10
2018-08-17T07:22:45.003Z,26.00
2018-08-17T07:26:47.858Z,26.50
2018-08-17T07:30:50.634Z,26.00
2018-08-17T07:34:52.818Z,26.30
2018-08-17T07:38:55.034Z,26.90
2018-08-17T07:42:57.271Z,26.20
2018-08-17T07:46:59.499Z,26.90
2018-08-17T07:51:01.680Z,26.60
2018-08-17T07:55:03.902Z,25.60
2018-08-17T07:59:06.238Z,25.80
2018-08-17T08:03:08.420Z,25.40
2018-08-17T08:07:10.626Z,26.10
2018-08-17T08:11:12.909Z,26.60
2018-08-17T08:15:15.051Z,27.30
2018-08-17T08:19:19.244Z,27.30
2018-08-17T08:23:26.670Z,27.00
2018-08-17T08:27:30.492Z,28.00
2018-08-17T08:31:32.711Z,27.30
2018-08-17T08:35:34.903Z,27.40
2018-08-17T08:39:37.175Z,26.60
2018-08-17T08:43:39.341Z,26.40
2018-08-17T08:47:41.527Z,27.50
2018-08-17T08:51:43.792Z,28.20
2018-08-17T08:55:45.959Z,27.20
2018-08-17T08:59:48.187Z,28.80
2018-08-17T09:03:50.444Z,29.00
2018-08-17T09:07:52.835Z,28.70
2018-08-17T09:11:55.041Z,29.20
2018-08-17T09:15:57.283Z,29.80
2018-08-17T09:19:59.503Z,27.00
2018-08-17T09:24:01.683Z,28.80
2018-08-17T09:28:03.958Z,28.20
2018-08-17T09:32:06.231Z,28.80
2018-08-17T09:36:08.573Z,27.90
2018-08-17T09:40:11.157Z,28.20
2018-08-17T09:44:14.077Z,29.00
2018-08-17T09:48:16.454Z,28.70
2018-08-17T09:52:18.659Z,28.20
2018-08-17T09:56:20.807Z,26.70
2018-08-17T10:00:28.680Z,27.80
2018-08-17T10:04:36.484Z,29.00
2018-08-17T10:08:45.055Z,30.00
2018-08-17T10:12:49.754Z,29.30
2018-08-17T10:16:51.908Z,30.20
2018-08-17T10:20:54.157Z,27.70
2018-08-17T10:25:01.076Z,28.50
2018-08-17T10:29:04.117Z,28.70
2018-08-17T10:33:06.924Z,30.00
2018-08-17T10:37:09.946Z,29.80
2018-08-17T10:41:12.160Z,31.10
2018-08-17T10:45:14.306Z,30.20
2018-08-17T10:49:16.558Z,31.00
2018-08-17T10:53:19.207Z,29.40
2018-08-17T10:57:21.392Z,28.90
2018-08-17T11:01:23.889Z,30.40
2018-08-17T11:05:26.207Z,28.80
2018-08-17T11:09:29.337Z,27.10
2018-08-17T11:13:31.762Z,27.20
2018-08-17T11:17:33.917Z,26.40
2018-08-17T11:21:36.094Z,28.10
2018-08-17T11:25:38.338Z,27.70
2018-08-17T11:29:40.584Z,27.70
2018-08-17T11:33:42.788Z,27.50
2018-08-17T11:37:45.063Z,30.70
2018-08-17T11:41:47.262Z,29.40
2018-08-17T11:45:49.579Z,28.40
2018-08-17T11:49:51.858Z,28.20
2018-08-17T11:53:54.117Z,29.60
2018-08-17T11:57:56.252Z,28.80
2018-08-17T12:01:58.485Z,28.90
2018-08-17T12:06:00.639Z,30.80
2018-08-17T12:10:03.829Z,28.80
2018-08-17T12:14:06.399Z,29.50
2018-08-17T12:18:10.004Z,29.80
2018-08-17T12:22:13.576Z,31.70
2018-08-17T12:26:16.621Z,33.80
2018-08-17T12:30:19.293Z,34.20
2018-08-17T12:34:21.632Z,35.20
2018-08-17T12:38:24.180Z,35.70
2018-08-17T12:42:26.520Z,32.00
2018-08-17T12:46:29.370Z,32.10
2018-08-17T12:50:31.882Z,33.80
2018-08-17T12:54:34.867Z,33.20
2018-08-17T12:58:37.059Z,31.90
2018-08-17T13:02:39.872Z,33.40
2018-08-17T13:06:42.223Z,35.00
2018-08-17T13:10:45.657Z,36.90
2018-08-17T13:14:48.480Z,37.40
2018-08-17T13:18:50.675Z,34.30
2018-08-17T13:22:53.305Z,36.20
2018-08-17T13:26:55.508Z,38.20
2018-08-17T13:30:58.219Z,37.30
2018-08-17T13:35:01.298Z,37.30
2018-08-17T13:39:06.770Z,36.70
2018-08-17T13:43:09.021Z,35.70
2018-08-17T13:47:11.347Z,34.20
2018-08-17T13:51:13.628Z,34.50
2018-08-17T13:55:15.875Z,34.00
2018-08-17T13:59:17.991Z,32.50
2018-08-17T14:03:20.166Z,33.80
2018-08-17T14:07:22.401Z,31.90
2018-08-17T14:11:24.649Z,33.80
2018-08-17T14:15:26.855Z,32.90
2018-08-17T14:19:29.092Z,34.50
2018-08-17T14:23:31.268Z,35.30
2018-08-17T14:27:33.511Z,36.00
2018-08-17T14:31:35.687Z,35.70
2018-08-17T14:35:39.010Z,34.80
2018-08-17T14:39:41.812Z,34.90
2018-08-17T14:43:44.102Z,34.30
2018-08-17T14:47:46.309Z,34.90
2018-08-17T14:51:49.867Z,33.30
2018-08-17T14:55:52.268Z,33.50
2018-08-17T14:59:54.473Z,33.00
2018-08-17T15:03:56.925Z,33.20
2018-08-17T15:08:02.180Z,32.60
2018-08-17T15:12:04.428Z,33.10
2018-08-17T15:16:06.614Z,33.10
2018-08-17T15:20:09.884Z,33.00
2018-08-17T15:24:12.092Z,31.90
2018-08-17T15:28:14.703Z,30.90
2018-08-17T15:32:17.204Z,30.30
2018-08-17T15:36:19.407Z,29.50
2018-08-17T15:40:21.575Z,29.70
2018-08-17T15:44:25.671Z,30.30
2018-08-17T15:48:28.943Z,30.50
2018-08-17T15:52:31.338Z,30.10
2018-08-17T15:56:33.523Z,29.60
2018-08-17T16:00:35.820Z,28.60
2018-08-17T16:04:37.993Z,28.70
2018-08-17T16:08:40.206Z,28.40
2018-08-17T16:12:42.622Z,28.40
2018-08-17T16:16:44.853Z,28.50
2018-08-17T16:20:47.155Z,28.00
2018-08-17T16:24:50.629Z,28.90
2018-08-17T16:28:52.902Z,29.20
2018-08-17T16:32:55.183Z,28.60
2018-08-17T16:36:57.447Z,28.40
2018-08-17T16:40:59.659Z,28.90
2018-08-17T16:45:02.105Z,27.90
2018-08-17T16:49:04.492Z,28.60
2018-08-17T16:53:06.759Z,27.90
2018-08-17T16:57:08.947Z,27.80
2018-08-17T17:01:11.215Z,27.20
2018-08-17T17:05:13.519Z,27.40
2018-08-17T17:09:15.682Z,27.60
2018-08-17T17:13:17.896Z,28.20
2018-08-17T17:17:20.084Z,26.30
2018-08-17T17:21:22.332Z,28.00
2018-08-17T17:25:24.502Z,27.40
2018-08-17T17:29:30.999Z,26.90
2018-08-17T17:33:33.184Z,26.90
2018-08-17T17:37:35.377Z,26.40
2018-08-17T17:41:37.766Z,27.00
2018-08-17T17:45:40.283Z,27.00
2018-08-17T17:49:42.507Z,26.60
2018-08-17T17:53:46.258Z,26.80
2018-08-17T17:57:49.859Z,26.20
2018-08-17T18:01:52.092Z,26.50
2018-08-17T18:05:54.739Z,26.40
2018-08-17T18:09:56.945Z,25.80
2018-08-17T18:13:59.130Z,26.60
2018-08-17T18:18:01.396Z,26.30
2018-08-17T18:22:03.707Z,25.90
2018-08-17T18:26:09.417Z,25.70
2018-08-17T18:30:11.691Z,25.90
2018-08-17T18:34:14.391Z,25.60
2018-08-17T18:38:16.606Z,25.70
2018-08-17T18:42:18.868Z,26.00
2018-08-17T18:46:21.202Z,25.10
2018-08-17T18:50:23.396Z,25.30
2018-08-17T18:54:25.710Z,25.30
2018-08-17T18:58:27.946Z,24.50
2018-08-17T19:02:30.162Z,25.10
2018-08-17T19:06:32.407Z,24.50
2018-08-17T19:10:34.710Z,24.10
2018-08-17T19:14:42.647Z,25.00
2018-08-17T19:18:44.852Z,24.70
2018-08-17T19:22:47.140Z,24.70
2018-08-17T19:26:49.351Z,25.10
2018-08-17T19:30:51.743Z,24.90
2018-08-17T19:34:54.283Z,25.00
2018-08-17T19:38:56.656Z,24.40
2018-08-17T19:42:58.845Z,24.10
2018-08-17T19:47:01.069Z,24.60
2018-08-17T19:51:07.917Z,24.50
2018-08-17T19:55:10.136Z,24.30
2018-08-17T19:59:12.287Z,24.60
2018-08-17T20:03:14.479Z,24.50
2018-08-17T20:07:16.736Z,24.70
2018-08-17T20:11:19.017Z,24.50
2018-08-17T20:15:21.271Z,24.00
2018-08-17T20:19:32.564Z,24.20
2018-08-17T20:23:34.792Z,24.00
2018-08-17T20:27:37.009Z,24.30
2018-08-17T20:31:42.504Z,23.70
2018-08-17T20:35:44.695Z,24.00
2018-08-17T20:39:47.168Z,23.30
2018-08-17T20:43:49.355Z,23.80
2018-08-17T20:47:51.650Z,23.90
2018-08-17T20:51:57.847Z,24.00
2018-08-17T20:56:00.179Z,23.10
2018-08-17T21:00:02.529Z,23.40
2018-08-17T21:04:04.773Z,23.80
2018-08-17T21:08:07.160Z,23.90
2018-08-17T21:12:09.342Z,23.60
2018-08-17T21:16:11.528Z,23.70
2018-08-17T21:20:14.084Z,23.20
2018-08-17T21:24:16.304Z,23.50
2018-08-17T21:28:18.488Z,23.50
2018-08-17T21:32:21.335Z,23.90
2018-08-17T21:36:23.555Z,24.30
2018-08-17T21:40:28.797Z,24.10
2018-08-17T21:44:31.019Z,24.40
2018-08-17T21:48:36.119Z,23.70
2018-08-17T21:52:38.324Z,22.60
2018-08-17T21:56:40.719Z,23.50
2018-08-17T22:00:42.956Z,23.40
2018-08-17T22:04:46.114Z,24.10
2018-08-17T22:08:48.322Z,23.70
2018-08-17T22:12:50.494Z,23.70
2018-08-17T22:16:52.674Z,23.50
2018-08-17T22:20:54.913Z,24.00
2018-08-17T22:24:58.135Z,23.50
2018-08-17T22:29:00.329Z,23.90
2018-08-17T22:33:12.199Z,23.70
2018-08-17T22:37:14.571Z,23.20
2018-08-17T22:41:16.754Z,23.30
2018-08-17T22:45:18.930Z,23.50
2018-08-17T22:49:21.106Z,23.50
2018-08-17T22:53:23.285Z,23.80
2018-08-17T22:57:26.263Z,23.30
2018-08-17T23:01:28.572Z,23.10
2018-08-17T23:05:34.335Z,23.00
2018-08-17T23:09:36.503Z,23.40
2018-08-17T23:13:38.662Z,23.40
2018-08-17T23:17:43.691Z,22.80
2018-08-17T23:21:45.911Z,21.90
2018-08-17T23:25:48.103Z,23.20
2018-08-17T23:29:50.262Z,23.10
2018-08-17T23:33:52.570Z,23.10
2018-08-17T23:37:54.818Z,22.70
2018-08-17T23:41:57.051Z,23.50
2018-08-17T23:45:59.219Z,22.20
2018-08-17T23:50:01.387Z,22.60
2018-08-17T23:54:03.568Z,22.50
2018-08-17T23:58:05.776Z,22.90
